sensor_id;sensor_type;location;lat;lon;timestamp;temperature;humidity
19224;DHT22;9746;47.180;9.776;2023-08-07T07:15:23;11.00;99.90
19224;DHT22;9746;47.180;9.776;2023-08-07T07:17:51;11.00;99.90
19224;DHT22;9746;47.180;9.776;2023-08-07T07:20:20;11.10;99.90
19224;DHT22;9746;47.180;9.776;2023-08-07T07:22:48;11.10;99.90
19224;DHT22;9746;47.180;9.776;2023-08-07T07:25:15;11.10;99.90
19224;DHT22;9746;47.180;9.776;2023-08-07T07:27:43;11.20;99.90
19224;DHT22;9746;47.180;9.776;2023-08-07T07:30:14;11.20;99.90
19224;DHT22;9746;47.180;9.776;2023-08-07T07:32:43;11.20;99.90
19224;DHT22;9746;47.180;9.776;2023-08-07T07:35:24;11.30;99.90
19224;DHT22;9746;47.180;9.776;2023-08-07T07:37:52;11.40;99.90
19224;DHT22;9746;47.180;9.776;2023-08-07T07:40:27;11.40;99.90
19224;DHT22;9746;47.180;9.776;2023-08-07T07:42:55;11.40;99.90
19224;DHT22;9746;47.180;9.776;2023-08-07T07:45:26;11.50;99.90
19224;DHT22;9746;47.180;9.776;2023-08-07T07:47:56;11.40;99.90
19224;DHT22;9746;47.180;9.776;2023-08-07T07:50:24;11.50;99.90
19224;DHT22;9746;47.180;9.776;2023-08-07T07:52:52;11.50;99.90
19224;DHT22;9746;47.180;9.776;2023-08-07T07:55:26;11.40;99.90
19224;DHT22;9746;47.180;9.776;2023-08-07T07:57:54;11.50;99.90
19224;DHT22;9746;47.180;9.776;2023-08-07T08:00:23;11.50;99.90
19224;DHT22;9746;47.180;9.776;2023-08-07T08:02:53;11.60;99.90
19224;DHT22;9746;47.180;9.776;2023-08-07T08:05:29;11.60;99.90
19224;DHT22;9746;47.180;9.776;2023-08-07T08:07:56;11.60;99.90
19224;DHT22;9746;47.180;9.776;2023-08-07T08:10:30;11.60;99.90
19224;DHT22;9746;47.180;9.776;2023-08-07T08:12:57;11.60;99.90
19224;DHT22;9746;47.180;9.776;2023-08-07T08:15:30;11.60;99.90
19224;DHT22;9746;47.180;9.776;2023-08-07T08:17:57;11.70;99.90
19224;DHT22;9746;47.180;9.776;2023-08-07T08:20:44;11.70;99.90
19224;DHT22;9746;47.180;9.776;2023-08-07T08:23:11;11.60;99.90
19224;DHT22;9746;47.180;9.776;2023-08-07T08:25:40;11.60;99.90
19224;DHT22;9746;47.180;9.776;2023-08-07T08:28:07;11.70;99.90
19224;DHT22;9746;47.180;9.776;2023-08-07T08:30:49;11.80;99.90
19224;DHT22;9746;47.180;9.776;2023-08-07T08:33:17;11.80;99.90
19224;DHT22;9746;47.180;9.776;2023-08-07T08:35:53;11.80;99.90
19224;DHT22;9746;47.180;9.776;2023-08-07T08:38:23;11.90;99.90
19224;DHT22;9746;47.180;9.776;2023-08-07T08:41:02;12.00;99.90
19224;DHT22;9746;47.180;9.776;2023-08-07T08:43:35;12.10;99.90
19224;DHT22;9746;47.180;9.776;2023-08-07T08:46:04;12.20;99.90
19224;DHT22;9746;47.180;9.776;2023-08-07T08:48:34;12.20;99.90
19224;DHT22;9746;47.180;9.776;2023-08-07T08:51:07;12.20;99.90
19224;DHT22;9746;47.180;9.776;2023-08-07T08:53:37;12.30;99.90
19224;DHT22;9746;47.180;9.776;2023-08-07T08:56:18;12.30;99.90
19224;DHT22;9746;47.180;9.776;2023-08-07T08:58:48;12.30;99.90
19224;DHT22;9746;47.180;9.776;2023-08-07T09:01:33;12.30;99.90
19224;DHT22;9746;47.180;9.776;2023-08-07T09:04:02;12.30;99.90
19224;DHT22;9746;47.180;9.776;2023-08-07T09:06:34;12.40;99.90
19224;DHT22;9746;47.180;9.776;2023-08-07T09:09:01;12.40;99.90
19224;DHT22;9746;47.180;9.776;2023-08-07T09:11:32;12.40;99.90
19224;DHT22;9746;47.180;9.776;2023-08-07T09:14:01;12.60;99.90
19224;DHT22;9746;47.180;9.776;2023-08-07T09:16:36;12.60;99.90
19224;DHT22;9746;47.180;9.776;2023-08-07T09:19:04;12.60;99.90
19224;DHT22;9746;47.180;9.776;2023-08-07T09:21:40;12.60;99.90
19224;DHT22;9746;47.180;9.776;2023-08-07T09:24:08;12.80;99.90
19224;DHT22;9746;47.180;9.776;2023-08-07T09:26:37;12.90;99.90
19224;DHT22;9746;47.180;9.776;2023-08-07T09:29:05;12.90;99.90
19224;DHT22;9746;47.180;9.776;2023-08-07T09:34:38;13.10;99.90
19224;DHT22;9746;47.180;9.776;2023-08-07T09:37:08;13.00;99.90
19224;DHT22;9746;47.180;9.776;2023-08-07T09:39:36;12.90;99.90
19224;DHT22;9746;47.180;9.776;2023-08-07T09:42:05;12.90;99.90
19224;DHT22;9746;47.180;9.776;2023-08-07T09:44:39;12.80;99.90
19224;DHT22;9746;47.180;9.776;2023-08-07T09:47:17;12.70;99.90
19224;DHT22;9746;47.180;9.776;2023-08-07T09:49:46;12.70;99.90
19224;DHT22;9746;47.180;9.776;2023-08-07T09:52:27;12.80;99.90
19224;DHT22;9746;47.180;9.776;2023-08-07T09:54:56;12.80;99.90
19224;DHT22;9746;47.180;9.776;2023-08-07T09:57:32;12.90;99.90
19224;DHT22;9746;47.180;9.776;2023-08-07T10:00:03;12.90;99.90
19224;DHT22;9746;47.180;9.776;2023-08-07T10:02:46;13.00;99.90
19224;DHT22;9746;47.180;9.776;2023-08-07T10:05:15;13.00;99.90
19224;DHT22;9746;47.180;9.776;2023-08-07T10:07:48;12.90;99.90
19224;DHT22;9746;47.180;9.776;2023-08-07T10:10:16;12.90;99.90
19224;DHT22;9746;47.180;9.776;2023-08-07T10:12:45;13.00;99.90
19224;DHT22;9746;47.180;9.776;2023-08-07T10:15:15;13.00;99.90
19224;DHT22;9746;47.180;9.776;2023-08-07T10:17:42;13.10;99.90
19224;DHT22;9746;47.180;9.776;2023-08-07T10:20:11;13.10;99.90
19224;DHT22;9746;47.180;9.776;2023-08-07T10:26:02;13.30;99.90
19224;DHT22;9746;47.180;9.776;2023-08-07T10:28:33;13.40;99.90
19224;DHT22;9746;47.180;9.776;2023-08-07T10:31:04;13.40;99.90
19224;DHT22;9746;47.180;9.776;2023-08-07T10:33:33;13.40;99.90
19224;DHT22;9746;47.180;9.776;2023-08-07T10:36:08;13.50;99.90
19224;DHT22;9746;47.180;9.776;2023-08-07T10:38:37;13.50;99.90
19224;DHT22;9746;47.180;9.776;2023-08-07T10:41:13;13.50;99.90
19224;DHT22;9746;47.180;9.776;2023-08-07T10:43:41;13.50;99.90
19224;DHT22;9746;47.180;9.776;2023-08-07T10:46:22;13.60;99.90
19224;DHT22;9746;47.180;9.776;2023-08-07T10:48:55;13.60;99.90
19224;DHT22;9746;47.180;9.776;2023-08-07T10:51:29;13.60;99.90
19224;DHT22;9746;47.180;9.776;2023-08-07T10:53:57;13.60;99.90
19224;DHT22;9746;47.180;9.776;2023-08-07T10:56:51;13.60;99.90
19224;DHT22;9746;47.180;9.776;2023-08-07T10:59:19;13.70;99.90
19224;DHT22;9746;47.180;9.776;2023-08-07T11:01:55;13.70;99.90
19224;DHT22;9746;47.180;9.776;2023-08-07T11:04:23;13.80;99.90
19224;DHT22;9746;47.180;9.776;2023-08-07T11:06:53;13.90;99.90
19224;DHT22;9746;47.180;9.776;2023-08-07T11:09:20;14.10;99.90
19224;DHT22;9746;47.180;9.776;2023-08-07T11:11:56;14.20;99.90
19224;DHT22;9746;47.180;9.776;2023-08-07T11:14:24;14.50;99.90
19224;DHT22;9746;47.180;9.776;2023-08-07T11:16:59;15.10;99.90
19224;DHT22;9746;47.180;9.776;2023-08-07T11:19:30;15.80;99.90
19224;DHT22;9746;47.180;9.776;2023-08-07T11:22:17;16.30;99.90
19224;DHT22;9746;47.180;9.776;2023-08-07T11:24:47;16.70;99.90
19224;DHT22;9746;47.180;9.776;2023-08-07T11:27:26;16.80;99.90
19224;DHT22;9746;47.180;9.776;2023-08-07T11:29:53;16.80;99.90
19224;DHT22;9746;47.180;9.776;2023-08-07T11:32:23;16.50;99.90
19224;DHT22;9746;47.180;9.776;2023-08-07T11:34:51;16.50;99.90
19224;DHT22;9746;47.180;9.776;2023-08-07T11:37:28;16.50;99.90
19224;DHT22;9746;47.180;9.776;2023-08-07T11:40:02;16.50;99.90
19224;DHT22;9746;47.180;9.776;2023-08-07T11:42:31;16.50;99.90
19224;DHT22;9746;47.180;9.776;2023-08-07T11:44:59;16.40;99.90
19224;DHT22;9746;47.180;9.776;2023-08-07T11:47:42;16.40;99.90
19224;DHT22;9746;47.180;9.776;2023-08-07T11:50:10;16.50;99.90
19224;DHT22;9746;47.180;9.776;2023-08-07T11:52:51;17.10;99.90
19224;DHT22;9746;47.180;9.776;2023-08-07T11:55:20;18.20;99.90
19224;DHT22;9746;47.180;9.776;2023-08-07T12:00:54;19.20;99.90
19224;DHT22;9746;47.180;9.776;2023-08-07T12:03:27;19.50;99.90
19224;DHT22;9746;47.180;9.776;2023-08-07T12:05:56;20.20;99.90
19224;DHT22;9746;47.180;9.776;2023-08-07T12:08:41;20.80;99.90
19224;DHT22;9746;47.180;9.776;2023-08-07T12:11:10;21.50;99.90
19224;DHT22;9746;47.180;9.776;2023-08-07T12:13:39;21.90;99.90
19224;DHT22;9746;47.180;9.776;2023-08-07T12:16:09;21.70;99.90
19224;DHT22;9746;47.180;9.776;2023-08-07T12:18:43;21.50;99.90
19224;DHT22;9746;47.180;9.776;2023-08-07T12:21:13;21.50;99.90
19224;DHT22;9746;47.180;9.776;2023-08-07T12:23:41;22.00;99.90
19224;DHT22;9746;47.180;9.776;2023-08-07T12:26:08;22.20;99.90
19224;DHT22;9746;47.180;9.776;2023-08-07T12:28:52;21.60;99.90
19224;DHT22;9746;47.180;9.776;2023-08-07T12:31:22;21.00;99.90
19224;DHT22;9746;47.180;9.776;2023-08-07T12:33:49;20.10;99.90
19224;DHT22;9746;47.180;9.776;2023-08-07T12:36:16;19.80;99.90
19224;DHT22;9746;47.180;9.776;2023-08-07T12:38:59;19.60;99.90
19224;DHT22;9746;47.180;9.776;2023-08-07T12:41:40;18.90;99.90
19224;DHT22;9746;47.180;9.776;2023-08-07T12:44:08;18.50;99.90
19224;DHT22;9746;47.180;9.776;2023-08-07T12:46:38;18.40;99.90
19224;DHT22;9746;47.180;9.776;2023-08-07T12:49:09;18.10;99.90
19224;DHT22;9746;47.180;9.776;2023-08-07T12:51:39;17.80;99.90
19224;DHT22;9746;47.180;9.776;2023-08-07T12:54:07;17.80;99.90
19224;DHT22;9746;47.180;9.776;2023-08-07T12:56:38;17.80;99.90
19224;DHT22;9746;47.180;9.776;2023-08-07T12:59:06;17.90;99.90
19224;DHT22;9746;47.180;9.776;2023-08-07T13:01:35;17.90;99.90
19224;DHT22;9746;47.180;9.776;2023-08-07T13:04:04;17.90;99.90
19224;DHT22;9746;47.180;9.776;2023-08-07T13:06:31;17.90;99.90
19224;DHT22;9746;47.180;9.776;2023-08-07T13:09:24;17.80;99.90
19224;DHT22;9746;47.180;9.776;2023-08-07T13:11:59;17.80;99.90
19224;DHT22;9746;47.180;9.776;2023-08-07T13:14:26;17.70;99.90
19224;DHT22;9746;47.180;9.776;2023-08-07T13:17:15;17.70;99.90
19224;DHT22;9746;47.180;9.776;2023-08-07T13:19:44;17.70;99.90
19224;DHT22;9746;47.180;9.776;2023-08-07T13:22:19;17.80;99.90
19224;DHT22;9746;47.180;9.776;2023-08-07T13:24:47;17.90;99.90
19224;DHT22;9746;47.180;9.776;2023-08-07T13:27:14;18.00;99.90
19224;DHT22;9746;47.180;9.776;2023-08-07T13:29:42;17.80;99.90
19224;DHT22;9746;47.180;9.776;2023-08-07T13:32:22;17.50;99.90
19224;DHT22;9746;47.180;9.776;2023-08-07T13:34:51;17.40;99.90
19224;DHT22;9746;47.180;9.776;2023-08-07T13:37:31;17.20;99.90
19224;DHT22;9746;47.180;9.776;2023-08-07T13:39:59;16.80;99.90
19224;DHT22;9746;47.180;9.776;2023-08-07T13:42:28;16.60;99.90
19224;DHT22;9746;47.180;9.776;2023-08-07T13:44:55;16.60;99.90
19224;DHT22;9746;47.180;9.776;2023-08-07T13:47:24;16.70;99.90
19224;DHT22;9746;47.180;9.776;2023-08-07T13:49:53;16.80;99.90
19224;DHT22;9746;47.180;9.776;2023-08-07T13:52:29;16.50;99.90
19224;DHT22;9746;47.180;9.776;2023-08-07T13:54:56;16.30;99.90
19224;DHT22;9746;47.180;9.776;2023-08-07T13:57:25;16.10;99.90
19224;DHT22;9746;47.180;9.776;2023-08-07T13:59:53;16.00;99.90
19224;DHT22;9746;47.180;9.776;2023-08-07T14:02:23;16.10;99.90
19224;DHT22;9746;47.180;9.776;2023-08-07T14:04:50;16.10;99.90
19224;DHT22;9746;47.180;9.776;2023-08-07T14:07:21;16.30;99.90
19224;DHT22;9746;47.180;9.776;2023-08-07T14:09:49;16.50;99.90
19224;DHT22;9746;47.180;9.776;2023-08-07T14:12:42;17.20;99.90
19224;DHT22;9746;47.180;9.776;2023-08-07T14:15:10;19.20;99.90
19224;DHT22;9746;47.180;9.776;2023-08-07T14:17:51;21.50;99.90
19224;DHT22;9746;47.180;9.776;2023-08-07T14:20:19;23.30;99.90
19224;DHT22;9746;47.180;9.776;2023-08-07T14:23:09;24.80;99.90
19224;DHT22;9746;47.180;9.776;2023-08-07T14:25:37;26.00;99.90
19224;DHT22;9746;47.180;9.776;2023-08-07T14:28:06;26.80;99.90
19224;DHT22;9746;47.180;9.776;2023-08-07T14:30:34;28.00;99.90
19224;DHT22;9746;47.180;9.776;2023-08-07T14:33:08;27.10;99.90
19224;DHT22;9746;47.180;9.776;2023-08-07T14:35:35;25.90;99.90
19224;DHT22;9746;47.180;9.776;2023-08-07T14:38:04;24.60;99.90
19224;DHT22;9746;47.180;9.776;2023-08-07T14:40:34;23.40;99.90
19224;DHT22;9746;47.180;9.776;2023-08-07T14:43:05;22.00;99.90
19224;DHT22;9746;47.180;9.776;2023-08-07T14:45:34;21.40;99.90
19224;DHT22;9746;47.180;9.776;2023-08-07T14:48:06;20.80;99.90
19224;DHT22;9746;47.180;9.776;2023-08-07T14:50:34;19.80;99.90
19224;DHT22;9746;47.180;9.776;2023-08-07T14:53:37;19.60;99.90
19224;DHT22;9746;47.180;9.776;2023-08-07T14:56:09;19.50;99.90
19224;DHT22;9746;47.180;9.776;2023-08-07T14:58:48;19.10;99.90
19224;DHT22;9746;47.180;9.776;2023-08-07T15:01:15;18.80;99.90
19224;DHT22;9746;47.180;9.776;2023-08-07T15:03:43;18.40;99.90
19224;DHT22;9746;47.180;9.776;2023-08-07T15:06:11;18.00;99.90
19224;DHT22;9746;47.180;9.776;2023-08-07T15:08:39;17.40;99.90
19224;DHT22;9746;47.180;9.776;2023-08-07T15:11:17;17.10;99.90
19224;DHT22;9746;47.180;9.776;2023-08-07T15:13:51;16.90;99.90
19224;DHT22;9746;47.180;9.776;2023-08-07T15:16:18;17.00;99.90
19224;DHT22;9746;47.180;9.776;2023-08-07T15:18:46;17.10;99.90
19224;DHT22;9746;47.180;9.776;2023-08-07T15:21:13;17.20;99.90
19224;DHT22;9746;47.180;9.776;2023-08-07T15:23:48;17.20;99.90
19224;DHT22;9746;47.180;9.776;2023-08-07T15:26:17;17.10;99.90
19224;DHT22;9746;47.180;9.776;2023-08-07T15:28:54;17.00;99.90
19224;DHT22;9746;47.180;9.776;2023-08-07T15:31:23;17.00;99.90
19224;DHT22;9746;47.180;9.776;2023-08-07T15:33:52;16.80;99.90
19224;DHT22;9746;47.180;9.776;2023-08-07T15:36:22;16.80;99.90
19224;DHT22;9746;47.180;9.776;2023-08-07T15:39:02;16.90;99.90
19224;DHT22;9746;47.180;9.776;2023-08-07T15:41:32;17.10;99.90
19224;DHT22;9746;47.180;9.776;2023-08-07T15:44:12;17.40;99.90
19224;DHT22;9746;47.180;9.776;2023-08-07T15:46:42;17.60;99.90
19224;DHT22;9746;47.180;9.776;2023-08-07T15:49:09;18.70;99.90
19224;DHT22;9746;47.180;9.776;2023-08-07T15:51:37;20.30;99.90
19224;DHT22;9746;47.180;9.776;2023-08-07T15:54:05;20.20;99.90
19224;DHT22;9746;47.180;9.776;2023-08-07T15:56:36;19.60;99.90
19224;DHT22;9746;47.180;9.776;2023-08-07T15:59:05;19.20;99.90
19224;DHT22;9746;47.180;9.776;2023-08-07T16:01:33;18.50;99.90
19224;DHT22;9746;47.180;9.776;2023-08-07T16:04:14;18.10;99.90
19224;DHT22;9746;47.180;9.776;2023-08-07T16:06:41;17.90;99.90
19224;DHT22;9746;47.180;9.776;2023-08-07T16:09:28;17.70;99.90
19224;DHT22;9746;47.180;9.776;2023-08-07T16:11:57;17.50;99.90
19224;DHT22;9746;47.180;9.776;2023-08-07T16:14:25;17.30;99.90
19224;DHT22;9746;47.180;9.776;2023-08-07T16:16:52;17.20;99.90
19224;DHT22;9746;47.180;9.776;2023-08-07T16:19:27;16.90;99.90
19224;DHT22;9746;47.180;9.776;2023-08-07T16:21:54;16.80;99.90
19224;DHT22;9746;47.180;9.776;2023-08-07T16:27:29;16.40;99.90
19224;DHT22;9746;47.180;9.776;2023-08-07T16:30:02;16.30;99.90
19224;DHT22;9746;47.180;9.776;2023-08-07T16:32:30;16.20;99.90
19224;DHT22;9746;47.180;9.776;2023-08-07T16:34:59;16.00;99.90
19224;DHT22;9746;47.180;9.776;2023-08-07T16:37:27;15.80;99.90
19224;DHT22;9746;47.180;9.776;2023-08-07T16:40:04;15.60;99.90
19224;DHT22;9746;47.180;9.776;2023-08-07T16:42:35;15.50;99.90
19224;DHT22;9746;47.180;9.776;2023-08-07T16:45:04;15.60;99.90
19224;DHT22;9746;47.180;9.776;2023-08-07T16:47:33;15.80;99.90
19224;DHT22;9746;47.180;9.776;2023-08-07T16:50:01;16.00;99.90
19224;DHT22;9746;47.180;9.776;2023-08-07T16:52:28;16.20;99.90
19224;DHT22;9746;47.180;9.776;2023-08-07T16:55:05;16.40;99.90
19224;DHT22;9746;47.180;9.776;2023-08-07T16:57:34;16.50;99.90
19224;DHT22;9746;47.180;9.776;2023-08-07T17:00:04;16.70;99.90
19224;DHT22;9746;47.180;9.776;2023-08-07T17:02:32;16.70;99.90
19224;DHT22;9746;47.180;9.776;2023-08-07T17:05:07;16.20;99.90
19224;DHT22;9746;47.180;9.776;2023-08-07T17:07:35;15.90;99.90
19224;DHT22;9746;47.180;9.776;2023-08-07T17:13:25;15.40;99.90
19224;DHT22;9746;47.180;9.776;2023-08-07T17:15:52;15.20;99.90
19224;DHT22;9746;47.180;9.776;2023-08-07T17:18:20;15.10;99.90
19224;DHT22;9746;47.180;9.776;2023-08-07T17:20:47;15.00;99.90
19224;DHT22;9746;47.180;9.776;2023-08-07T17:23:14;15.00;99.90
19224;DHT22;9746;47.180;9.776;2023-08-07T17:25:59;14.90;99.90
19224;DHT22;9746;47.180;9.776;2023-08-07T17:28:29;14.80;99.90
19224;DHT22;9746;47.180;9.776;2023-08-07T17:30:57;14.60;99.90
19224;DHT22;9746;47.180;9.776;2023-08-07T17:33:25;14.60;99.90
19224;DHT22;9746;47.180;9.776;2023-08-07T17:35:53;14.60;99.90
19224;DHT22;9746;47.180;9.776;2023-08-07T17:38:21;14.60;99.90
19224;DHT22;9746;47.180;9.776;2023-08-07T17:40:49;14.50;99.90
19224;DHT22;9746;47.180;9.776;2023-08-07T17:43:16;14.40;99.90
19224;DHT22;9746;47.180;9.776;2023-08-07T17:45:51;14.50;99.90
19224;DHT22;9746;47.180;9.776;2023-08-07T17:48:18;14.50;99.90
19224;DHT22;9746;47.180;9.776;2023-08-07T17:54:12;14.40;99.90
19224;DHT22;9746;47.180;9.776;2023-08-07T17:56:40;14.30;99.90
19224;DHT22;9746;47.180;9.776;2023-08-07T17:59:22;14.30;99.90
19224;DHT22;9746;47.180;9.776;2023-08-07T18:01:51;14.20;99.90
19224;DHT22;9746;47.180;9.776;2023-08-07T18:07:11;14.20;99.90
19224;DHT22;9746;47.180;9.776;2023-08-07T18:09:48;14.30;99.90
19224;DHT22;9746;47.180;9.776;2023-08-07T18:12:17;14.20;99.90
19224;DHT22;9746;47.180;9.776;2023-08-07T18:14:44;14.20;99.90
19224;DHT22;9746;47.180;9.776;2023-08-07T18:17:13;14.30;99.90
19224;DHT22;9746;47.180;9.776;2023-08-07T18:19:46;14.30;99.90
19224;DHT22;9746;47.180;9.776;2023-08-07T18:22:13;14.20;99.90
19224;DHT22;9746;47.180;9.776;2023-08-07T18:24:44;14.20;99.90
19224;DHT22;9746;47.180;9.776;2023-08-07T18:27:12;14.10;99.90
19224;DHT22;9746;47.180;9.776;2023-08-07T18:29:40;14.00;99.90
19224;DHT22;9746;47.180;9.776;2023-08-07T18:32:08;13.90;99.90
19224;DHT22;9746;47.180;9.776;2023-08-07T18:35:00;13.90;99.90
19224;DHT22;9746;47.180;9.776;2023-08-07T18:37:28;13.80;99.90
19224;DHT22;9746;47.180;9.776;2023-08-07T18:40:12;13.70;99.90
19224;DHT22;9746;47.180;9.776;2023-08-07T18:42:42;13.60;99.90
19224;DHT22;9746;47.180;9.776;2023-08-07T18:45:21;13.70;99.90
19224;DHT22;9746;47.180;9.776;2023-08-07T18:47:50;13.70;99.90
19224;DHT22;9746;47.180;9.776;2023-08-07T18:50:20;13.70;99.90
19224;DHT22;9746;47.180;9.776;2023-08-07T18:52:49;13.70;99.90
19224;DHT22;9746;47.180;9.776;2023-08-07T18:55:57;13.70;99.90
19224;DHT22;9746;47.180;9.776;2023-08-07T18:58:34;13.60;99.90
19224;DHT22;9746;47.180;9.776;2023-08-07T19:01:03;13.60;99.90
19224;DHT22;9746;47.180;9.776;2023-08-07T19:03:32;13.60;99.90
19224;DHT22;9746;47.180;9.776;2023-08-07T19:06:04;13.60;99.90
19224;DHT22;9746;47.180;9.776;2023-08-07T19:08:33;13.60;99.90
19224;DHT22;9746;47.180;9.776;2023-08-07T19:11:08;13.60;99.90
19224;DHT22;9746;47.180;9.776;2023-08-07T19:13:36;13.50;99.90
19224;DHT22;9746;47.180;9.776;2023-08-07T19:16:03;13.50;99.90
19224;DHT22;9746;47.180;9.776;2023-08-07T19:18:32;13.40;99.90
19224;DHT22;9746;47.180;9.776;2023-08-07T19:21:00;13.40;99.90
19224;DHT22;9746;47.180;9.776;2023-08-07T19:23:31;13.40;99.90
19224;DHT22;9746;47.180;9.776;2023-08-07T19:26:22;13.30;99.90
19224;DHT22;9746;47.180;9.776;2023-08-07T19:28:50;13.30;99.90
19224;DHT22;9746;47.180;9.776;2023-08-07T19:31:24;13.20;99.90
19224;DHT22;9746;47.180;9.776;2023-08-07T19:33:57;13.20;99.90
19224;DHT22;9746;47.180;9.776;2023-08-07T19:36:33;13.10;99.90
19224;DHT22;9746;47.180;9.776;2023-08-07T19:39:04;13.10;99.90
19224;DHT22;9746;47.180;9.776;2023-08-07T19:41:34;13.10;99.90
